createdAt,value
2019-05-14T00:00:28.804Z,6.82
2019-05-14T00:02:31.811Z,6.86
2019-05-14T00:04:33.298Z,6.54
2019-05-14T00:06:34.680Z,6.52
2019-05-14T00:08:36.053Z,6.54
2019-05-14T00:10:37.465Z,6.65
2019-05-14T00:12:38.933Z,6.61
2019-05-14T00:14:43.497Z,6.68
2019-05-14T00:16:43.633Z,6.63
2019-05-14T00:18:45.044Z,6.38
2019-05-14T00:20:46.417Z,6.53
2019-05-14T00:22:47.835Z,6.55
2019-05-14T00:24:49.247Z,6.36
2019-05-14T00:26:51.686Z,6.23
2019-05-14T00:28:53.304Z,6.14
2019-05-14T00:30:54.705Z,5.97
2019-05-14T00:32:56.112Z,5.91
2019-05-14T00:34:57.521Z,6.05
2019-05-14T00:36:58.900Z,5.97
2019-05-14T00:39:01.821Z,5.88
2019-05-14T00:41:03.446Z,5.63
2019-05-14T00:43:04.816Z,5.70
2019-05-14T00:45:06.533Z,5.67
2019-05-14T00:47:07.909Z,5.57
2019-05-14T00:49:09.312Z,5.56
2019-05-14T00:51:12.580Z,5.46
2019-05-14T00:53:13.980Z,5.40
2019-05-14T00:55:15.391Z,5.38
2019-05-14T00:57:16.764Z,5.33
2019-05-14T00:59:18.220Z,5.24
2019-05-14T01:01:21.503Z,5.16
2019-05-14T01:03:22.908Z,5.34
2019-05-14T01:05:24.317Z,5.14
2019-05-14T01:07:25.691Z,5.22
2019-05-14T01:09:27.072Z,5.24
2019-05-14T01:11:28.484Z,5.12
2019-05-14T01:13:31.219Z,5.01
2019-05-14T01:15:32.781Z,5.13
2019-05-14T01:17:34.154Z,5.00
2019-05-14T01:19:35.567Z,5.13
2019-05-14T01:21:36.982Z,4.81
2019-05-14T01:23:41.350Z,4.79
2019-05-14T01:25:42.444Z,5.08
2019-05-14T01:27:43.867Z,5.11
2019-05-14T01:29:45.225Z,5.22
2019-05-14T01:31:46.607Z,5.19
2019-05-14T01:33:48.012Z,5.00
2019-05-14T01:35:51.511Z,4.93
2019-05-14T01:37:52.711Z,4.95
2019-05-14T01:39:54.121Z,4.99
2019-05-14T01:41:55.548Z,4.74
2019-05-14T01:43:56.982Z,4.83
2019-05-14T01:45:58.399Z,5.02
2019-05-14T01:48:01.182Z,4.76
2019-05-14T01:50:05.757Z,4.80
2019-05-14T01:52:07.170Z,4.78
2019-05-14T01:54:08.549Z,4.56
2019-05-14T01:56:11.999Z,4.49
2019-05-14T01:58:13.277Z,4.59
2019-05-14T02:00:15.160Z,4.52
2019-05-14T02:02:16.612Z,4.60
2019-05-14T02:04:17.994Z,4.52
2019-05-14T02:06:21.324Z,4.43
2019-05-14T02:08:22.688Z,4.41
2019-05-14T02:10:24.464Z,4.57
2019-05-14T02:12:25.870Z,4.61
2019-05-14T02:14:27.256Z,4.54
2019-05-14T02:16:28.775Z,4.70
2019-05-14T02:18:31.175Z,4.64
2019-05-14T02:20:32.764Z,4.45
2019-05-14T02:22:34.236Z,4.44
2019-05-14T02:24:35.613Z,4.28
2019-05-14T02:26:37.013Z,4.04
2019-05-14T02:28:38.388Z,4.10
2019-05-14T02:30:51.748Z,4.18
2019-05-14T02:32:43.140Z,4.20
2019-05-14T02:34:44.515Z,4.26
2019-05-14T02:36:49.398Z,4.23
2019-05-14T02:38:49.591Z,4.17
2019-05-14T02:40:51.223Z,4.01
2019-05-14T02:42:52.601Z,3.93
2019-05-14T02:44:54.008Z,3.82
2019-05-14T02:46:55.422Z,3.77
2019-05-14T02:48:59.484Z,3.89
2019-05-14T02:51:00.229Z,3.83
2019-05-14T02:53:01.771Z,3.74
2019-05-14T02:55:05.147Z,3.71
2019-05-14T02:57:10.098Z,3.77
2019-05-14T02:59:10.117Z,3.65
2019-05-14T03:01:11.705Z,3.58
2019-05-14T03:03:13.073Z,3.53
2019-05-14T03:05:14.994Z,3.66
2019-05-14T03:07:19.164Z,3.61
2019-05-14T03:09:20.291Z,3.42
2019-05-14T03:11:22.155Z,3.56
2019-05-14T03:13:23.530Z,3.69
2019-05-14T03:15:25.001Z,3.57
2019-05-14T03:17:29.782Z,3.48
2019-05-14T03:19:30.169Z,3.66
2019-05-14T03:21:31.684Z,3.76
2019-05-14T03:23:33.037Z,3.66
2019-05-14T03:25:34.407Z,3.75
2019-05-14T03:27:35.818Z,3.73
2019-05-14T03:29:39.822Z,3.83
2019-05-14T03:31:42.567Z,3.69
2019-05-14T03:33:44.985Z,3.76
2019-05-14T03:35:52.081Z,3.76
2019-05-14T03:37:50.068Z,3.82
2019-05-14T03:39:51.526Z,3.70
2019-05-14T03:41:52.896Z,3.62
2019-05-14T03:43:54.298Z,3.55
2019-05-14T03:45:58.986Z,3.74
2019-05-14T03:47:59.394Z,3.68
2019-05-14T03:50:00.754Z,3.68
2019-05-14T03:52:02.152Z,3.67
2019-05-14T03:54:07.507Z,3.76
2019-05-14T03:56:10.131Z,3.74
2019-05-14T03:58:10.136Z,3.72
2019-05-14T04:00:12.102Z,3.62
2019-05-14T04:02:14.098Z,3.73
2019-05-14T04:04:19.172Z,3.70
2019-05-14T04:06:20.275Z,3.86
2019-05-14T04:08:24.343Z,3.91
2019-05-14T04:10:26.147Z,3.91
2019-05-14T04:12:30.225Z,4.12
2019-05-14T04:14:32.933Z,4.18
2019-05-14T04:16:35.816Z,4.19
2019-05-14T04:18:40.202Z,4.19
2019-05-14T04:20:43.336Z,4.20
2019-05-14T04:22:50.091Z,4.24
2019-05-14T04:24:53.923Z,4.28
2019-05-14T04:27:07.338Z,4.26
2019-05-14T04:29:04.982Z,4.45
2019-05-14T04:31:09.493Z,4.44
2019-05-14T04:33:10.785Z,4.35
2019-05-14T04:35:12.275Z,4.39
2019-05-14T04:37:13.676Z,4.46
2019-05-14T04:39:15.124Z,4.54
2019-05-14T04:41:19.547Z,4.69
2019-05-14T04:43:19.864Z,4.81
2019-05-14T04:45:21.251Z,4.89
2019-05-14T04:47:32.012Z,4.91
2019-05-14T04:49:28.915Z,5.03
2019-05-14T04:51:30.212Z,5.12
2019-05-14T04:53:32.074Z,5.23
2019-05-14T04:55:33.655Z,5.46
2019-05-14T04:57:35.038Z,5.60
2019-05-14T04:59:39.648Z,5.70
2019-05-14T05:01:40.281Z,5.79
2019-05-14T05:03:41.962Z,5.96
2019-05-14T05:05:43.332Z,6.05
2019-05-14T05:07:44.671Z,6.24
2019-05-14T05:09:46.084Z,6.50
2019-05-14T05:11:49.757Z,6.49
2019-05-14T05:13:50.762Z,6.62
2019-05-14T05:15:52.121Z,6.71
2019-05-14T05:17:53.587Z,6.87
2019-05-14T05:19:54.971Z,6.98
2019-05-14T05:21:58.554Z,7.10
2019-05-14T05:23:59.661Z,7.16
2019-05-14T05:26:01.065Z,7.38
2019-05-14T05:28:02.466Z,7.41
2019-05-14T05:30:08.282Z,7.56
2019-05-14T05:32:09.048Z,7.59
2019-05-14T05:34:10.424Z,7.69
2019-05-14T05:36:11.857Z,7.83
2019-05-14T05:38:13.231Z,7.91
2019-05-14T05:40:14.809Z,8.27
2019-05-14T05:42:18.582Z,8.25
2019-05-14T05:44:19.581Z,8.30
2019-05-14T05:46:20.996Z,8.56
2019-05-14T05:48:22.392Z,8.68
2019-05-14T05:50:23.787Z,8.59
2019-05-14T05:52:25.159Z,8.85
2019-05-14T05:54:29.014Z,9.11
2019-05-14T05:56:29.816Z,9.38
2019-05-14T05:58:31.189Z,9.53
2019-05-14T06:00:40.203Z,9.79
2019-05-14T06:02:41.671Z,10.05
2019-05-14T06:04:43.047Z,10.22
2019-05-14T06:06:44.456Z,10.24
2019-05-14T06:08:45.819Z,11.03
2019-05-14T06:10:49.045Z,11.86
2019-05-14T06:12:50.467Z,12.40
2019-05-14T06:14:51.830Z,12.96
2019-05-14T06:16:53.193Z,13.71
2019-05-14T06:18:54.636Z,14.01
2019-05-14T06:20:58.329Z,13.92
2019-05-14T06:22:59.360Z,13.91
2019-05-14T06:25:00.725Z,14.60
2019-05-14T06:27:02.083Z,15.42
2019-05-14T06:29:03.483Z,15.33
2019-05-14T06:31:04.894Z,15.28
2019-05-14T06:33:09.058Z,15.27
2019-05-14T06:35:09.841Z,14.25
2019-05-14T06:37:11.247Z,14.17
2019-05-14T06:39:12.659Z,13.69
2019-05-14T06:41:14.923Z,13.17
2019-05-14T06:43:16.344Z,12.81
2019-05-14T06:45:18.753Z,13.82
2019-05-14T06:47:20.275Z,14.59
2019-05-14T06:49:21.669Z,14.97
2019-05-14T06:51:23.079Z,14.10
2019-05-14T06:53:24.446Z,13.23
2019-05-14T06:55:28.308Z,12.45
2019-05-14T06:57:29.146Z,11.85
2019-05-14T06:59:30.546Z,11.66
2019-05-14T07:01:31.951Z,11.72
2019-05-14T07:03:33.313Z,11.65
2019-05-14T07:05:34.720Z,11.80
2019-05-14T07:07:36.094Z,12.02
2019-05-14T07:09:38.412Z,12.14
2019-05-14T07:11:40.155Z,12.29
2019-05-14T07:13:41.520Z,12.99
2019-05-14T07:15:42.995Z,13.79
2019-05-14T07:17:44.428Z,14.67
2019-05-14T07:19:45.824Z,13.97
2019-05-14T07:21:49.224Z,13.69
2019-05-14T07:23:50.488Z,13.90
2019-05-14T07:25:51.849Z,13.85
2019-05-14T07:27:53.247Z,14.37
2019-05-14T07:29:54.618Z,14.08
2019-05-14T07:31:58.232Z,13.32
2019-05-14T07:33:59.435Z,12.79
2019-05-14T07:36:00.797Z,12.51
2019-05-14T07:38:02.211Z,12.51
2019-05-14T07:40:05.180Z,12.43
2019-05-14T07:42:09.349Z,12.60
2019-05-14T07:44:10.257Z,12.59
2019-05-14T07:46:11.625Z,12.99
2019-05-14T07:48:13.016Z,14.26
2019-05-14T07:50:14.896Z,15.36
2019-05-14T07:52:16.253Z,15.99
2019-05-14T07:54:19.540Z,15.90
2019-05-14T07:56:20.924Z,15.53
2019-05-14T07:58:22.333Z,15.13
2019-05-14T08:00:24.005Z,14.52
2019-05-14T08:02:25.504Z,13.77
2019-05-14T08:04:28.862Z,13.62
2019-05-14T08:06:30.161Z,13.70
2019-05-14T08:08:31.697Z,13.61
2019-05-14T08:10:33.062Z,13.88
2019-05-14T08:12:34.428Z,13.88
2019-05-14T08:14:46.526Z,14.05
2019-05-14T08:16:39.289Z,14.00
2019-05-14T08:18:40.656Z,13.55
2019-05-14T08:20:42.052Z,13.57
2019-05-14T08:22:43.425Z,13.60
2019-05-14T08:24:45.949Z,13.23
2019-05-14T08:26:48.678Z,13.20
2019-05-14T08:28:50.297Z,13.19
2019-05-14T08:30:51.702Z,13.37
2019-05-14T08:32:53.069Z,14.27
2019-05-14T08:34:54.429Z,14.84
2019-05-14T08:36:55.846Z,14.90
2019-05-14T08:38:58.139Z,15.36
2019-05-14T08:40:59.574Z,14.95
2019-05-14T08:43:00.967Z,15.14
2019-05-14T08:45:10.504Z,15.08
2019-05-14T08:47:10.277Z,15.20
2019-05-14T08:49:11.672Z,15.11
2019-05-14T08:51:13.080Z,15.52
2019-05-14T08:53:14.466Z,15.65
2019-05-14T08:55:18.324Z,15.54
2019-05-14T08:57:19.331Z,15.27
2019-05-14T08:59:20.779Z,15.04
2019-05-14T09:01:22.168Z,14.72
2019-05-14T09:03:23.537Z,14.71
2019-05-14T09:05:24.929Z,14.62
2019-05-14T09:07:28.809Z,14.51
2019-05-14T09:09:29.619Z,14.69
2019-05-14T09:11:35.736Z,15.55
2019-05-14T09:13:34.268Z,16.30
2019-05-14T09:15:38.330Z,16.75
2019-05-14T09:17:39.276Z,17.08
2019-05-14T09:19:57.162Z,16.77
2019-05-14T09:21:44.158Z,16.85
2019-05-14T09:23:48.060Z,16.81
2019-05-14T09:25:53.011Z,16.37
2019-05-14T09:27:52.199Z,15.94
2019-05-14T09:29:53.557Z,15.78
2019-05-14T09:31:54.943Z,16.33
2019-05-14T09:33:58.332Z,16.61
2019-05-14T09:36:11.056Z,17.07
2019-05-14T09:38:03.131Z,17.41
2019-05-14T09:40:05.961Z,17.89
2019-05-14T09:42:08.180Z,17.31
2019-05-14T09:44:09.815Z,16.74
2019-05-14T09:46:11.215Z,16.09
2019-05-14T09:48:12.583Z,15.46
2019-05-14T09:50:18.630Z,15.01
2019-05-14T09:52:18.647Z,15.06
2019-05-14T09:54:20.382Z,15.54
2019-05-14T09:56:21.776Z,16.26
2019-05-14T09:58:23.164Z,17.40
2019-05-14T10:00:24.723Z,17.62
2019-05-14T10:02:26.120Z,17.07
2019-05-14T10:04:27.515Z,16.52
2019-05-14T10:06:28.879Z,16.06
2019-05-14T10:08:30.244Z,15.58
2019-05-14T10:10:31.712Z,15.22
2019-05-14T10:12:33.060Z,16.04
2019-05-14T10:14:34.414Z,16.93
2019-05-14T10:16:38.241Z,17.48
2019-05-14T10:18:39.092Z,17.78
2019-05-14T10:20:45.367Z,17.57
2019-05-14T10:22:43.781Z,17.00
2019-05-14T10:24:45.169Z,16.17
2019-05-14T10:26:48.954Z,15.62
2019-05-14T10:28:49.906Z,15.35
2019-05-14T10:30:51.310Z,15.09
2019-05-14T10:32:52.721Z,14.92
2019-05-14T10:34:54.083Z,14.88
2019-05-14T10:36:55.444Z,14.83
2019-05-14T10:38:58.844Z,14.57
2019-05-14T10:41:00.104Z,14.36
2019-05-14T10:43:01.714Z,14.52
2019-05-14T10:45:12.288Z,14.40
2019-05-14T10:47:09.836Z,14.47
2019-05-14T10:49:19.480Z,14.57
2019-05-14T10:51:14.497Z,14.91
2019-05-14T10:53:15.899Z,15.82
2019-05-14T10:55:18.532Z,16.16
2019-05-14T10:57:20.227Z,16.24
2019-05-14T10:59:21.652Z,16.31
2019-05-14T11:01:23.108Z,15.97
2019-05-14T11:03:24.500Z,15.75
2019-05-14T11:05:27.994Z,15.65
2019-05-14T11:07:29.359Z,15.78
2019-05-14T11:09:30.783Z,16.74
2019-05-14T11:11:32.187Z,16.71
2019-05-14T11:13:33.584Z,16.42
2019-05-14T11:15:34.933Z,16.08
2019-05-14T11:17:36.369Z,16.10
2019-05-14T11:19:38.982Z,16.12
2019-05-14T11:21:40.538Z,16.53
2019-05-14T11:23:41.964Z,16.60
2019-05-14T11:25:43.330Z,16.33
2019-05-14T11:27:44.722Z,16.00
2019-05-14T11:29:46.114Z,16.10
2019-05-14T11:31:48.423Z,15.70
2019-05-14T11:33:50.084Z,15.84
2019-05-14T11:35:51.492Z,15.59
2019-05-14T11:37:52.854Z,15.71
2019-05-14T11:39:54.227Z,15.70
2019-05-14T11:41:55.622Z,15.56
2019-05-14T11:43:59.308Z,15.50
2019-05-14T11:46:00.597Z,15.60
2019-05-14T11:48:01.998Z,15.47
2019-05-14T11:50:09.013Z,15.38
2019-05-14T11:52:11.760Z,15.46
2019-05-14T11:54:13.452Z,16.76
2019-05-14T11:56:14.846Z,17.39
2019-05-14T11:58:20.371Z,18.04
2019-05-14T12:00:20.105Z,17.67
2019-05-14T12:02:21.470Z,16.91
2019-05-14T12:04:22.997Z,16.67
2019-05-14T12:06:24.408Z,16.50
2019-05-14T12:08:25.863Z,16.07
2019-05-14T12:10:29.261Z,16.44
2019-05-14T12:12:30.531Z,16.24
2019-05-14T12:14:32.250Z,16.24
2019-05-14T12:16:33.595Z,16.54
2019-05-14T12:18:34.989Z,16.55
2019-05-14T12:20:39.340Z,16.36
2019-05-14T12:22:39.729Z,16.30
2019-05-14T12:24:41.134Z,16.48
2019-05-14T12:26:42.634Z,17.12
2019-05-14T12:28:44.039Z,17.04
2019-05-14T12:30:45.387Z,16.68
2019-05-14T12:32:49.790Z,17.05
2019-05-14T12:34:50.097Z,17.07
2019-05-14T12:36:51.465Z,17.25
2019-05-14T12:38:52.851Z,17.43
2019-05-14T12:40:54.207Z,17.75
2019-05-14T12:42:58.579Z,18.15
2019-05-14T12:44:58.933Z,17.68
2019-05-14T12:47:00.297Z,17.20
2019-05-14T12:49:01.707Z,16.89
2019-05-14T12:51:03.116Z,16.30
2019-05-14T12:53:04.474Z,16.12
2019-05-14T12:55:08.867Z,16.18
2019-05-14T12:57:09.739Z,16.47
2019-05-14T12:59:11.134Z,16.12
2019-05-14T13:01:12.529Z,16.10
2019-05-14T13:03:13.935Z,16.37
2019-05-14T13:05:18.131Z,16.63
2019-05-14T13:07:19.236Z,16.18
2019-05-14T13:09:21.676Z,16.09
2019-05-14T13:11:23.445Z,16.03
2019-05-14T13:13:24.801Z,16.51
2019-05-14T13:15:28.679Z,16.80
2019-05-14T13:17:29.472Z,17.29
2019-05-14T13:19:30.836Z,17.40
2019-05-14T13:21:32.194Z,17.04
2019-05-14T13:23:33.638Z,16.79
2019-05-14T13:25:35.107Z,17.07
2019-05-14T13:27:38.947Z,17.53
2019-05-14T13:29:39.786Z,17.38
2019-05-14T13:31:41.185Z,16.86
2019-05-14T13:33:42.546Z,16.84
2019-05-14T13:35:43.906Z,17.35
2019-05-14T13:37:45.302Z,17.24
2019-05-14T13:39:52.709Z,17.66
2019-05-14T13:41:49.978Z,17.49
2019-05-14T13:43:51.351Z,17.68
2019-05-14T13:45:52.711Z,17.62
2019-05-14T13:47:54.115Z,16.87
2019-05-14T13:49:55.473Z,17.11
2019-05-14T13:51:56.837Z,16.93
2019-05-14T13:53:58.941Z,16.87
2019-05-14T13:56:00.488Z,17.18
2019-05-14T13:58:01.981Z,17.32
2019-05-14T14:00:11.532Z,17.23
2019-05-14T14:02:09.824Z,16.65
2019-05-14T14:04:15.075Z,16.61
2019-05-14T14:06:14.962Z,16.79
2019-05-14T14:08:19.118Z,17.34
2019-05-14T14:10:19.714Z,17.51
2019-05-14T14:12:25.016Z,17.58
2019-05-14T14:14:24.383Z,17.86
2019-05-14T14:16:28.359Z,17.65
2019-05-14T14:18:29.424Z,17.27
2019-05-14T14:20:30.911Z,17.00
2019-05-14T14:22:32.326Z,16.95
2019-05-14T14:24:33.683Z,17.28
2019-05-14T14:26:35.044Z,17.34
2019-05-14T14:28:39.272Z,17.12
2019-05-14T14:30:39.806Z,16.72
2019-05-14T14:32:41.205Z,16.38
2019-05-14T14:34:42.560Z,16.81
2019-05-14T14:36:43.922Z,17.13
2019-05-14T14:38:45.427Z,17.27
2019-05-14T14:40:48.611Z,17.38
2019-05-14T14:42:50.127Z,17.42
2019-05-14T14:44:51.528Z,17.58
2019-05-14T14:46:52.887Z,17.30
2019-05-14T14:48:57.741Z,17.02
2019-05-14T14:50:58.680Z,16.43
2019-05-14T14:53:00.238Z,16.30
2019-05-14T14:55:02.239Z,16.33
2019-05-14T14:57:03.597Z,16.12
2019-05-14T14:59:04.989Z,16.06
2019-05-14T15:01:08.565Z,15.97
2019-05-14T15:03:10.177Z,15.90
2019-05-14T15:05:14.337Z,15.82
2019-05-14T15:07:15.349Z,16.08
2019-05-14T15:09:16.728Z,16.29
2019-05-14T15:11:18.125Z,16.05
2019-05-14T15:13:19.500Z,16.10
2019-05-14T17:12:57.137Z,16.18
2019-05-14T17:14:58.656Z,16.50
2019-05-14T17:17:00.006Z,16.27
2019-05-14T17:19:01.526Z,16.34
2019-05-14T17:21:02.980Z,15.94
2019-05-14T17:23:04.404Z,15.41
2019-05-14T17:25:09.047Z,15.06
2019-05-14T17:27:09.640Z,15.37
2019-05-14T17:29:11.041Z,15.37
2019-05-14T17:31:12.413Z,15.39
2019-05-14T17:33:13.811Z,15.21
2019-05-14T17:35:15.312Z,14.90
2019-05-14T17:37:18.914Z,14.72
2019-05-14T17:39:19.980Z,14.34
2019-05-14T17:41:21.382Z,14.08
2019-05-14T17:43:23.363Z,13.97
2019-05-14T17:45:24.861Z,14.11
2019-05-14T17:47:28.865Z,14.05
2019-05-14T17:49:29.714Z,14.14
2019-05-14T17:51:31.110Z,14.05
2019-05-14T17:53:32.495Z,13.88
2019-05-14T17:55:46.407Z,13.81
2019-05-14T17:57:44.245Z,13.67
2019-05-14T17:59:40.506Z,13.81
2019-05-14T18:01:41.894Z,13.42
2019-05-14T18:03:43.277Z,13.30
2019-05-14T18:05:44.840Z,13.35
2019-05-14T18:07:48.268Z,13.20
2019-05-14T18:09:49.537Z,13.10
2019-05-14T18:11:50.934Z,13.09
2019-05-14T18:13:52.314Z,13.11
2019-05-14T18:15:53.666Z,12.98
2019-05-14T18:17:55.114Z,13.02
2019-05-14T18:19:58.759Z,12.94
2019-05-14T18:22:00.001Z,12.91
2019-05-14T18:24:01.455Z,12.86
2019-05-14T18:26:08.345Z,12.51
2019-05-14T18:28:09.088Z,12.56
2019-05-14T18:30:10.726Z,12.31
2019-05-14T18:32:12.113Z,12.36
2019-05-14T18:34:13.502Z,12.36
2019-05-14T18:36:14.948Z,12.35
2019-05-14T18:38:16.309Z,12.08
2019-05-14T18:40:18.344Z,12.10
2019-05-14T18:42:19.921Z,12.04
2019-05-14T18:44:21.345Z,11.93
2019-05-14T18:46:24.193Z,12.04
2019-05-14T18:48:25.580Z,11.71
2019-05-14T18:50:28.885Z,11.71
2019-05-14T18:52:30.532Z,11.69
2019-05-14T18:54:31.896Z,11.61
2019-05-14T18:56:33.286Z,11.49
2019-05-14T18:58:34.686Z,11.49
2019-05-14T19:00:38.649Z,11.39
2019-05-14T19:02:39.490Z,11.27
2019-05-14T19:04:40.946Z,11.47
2019-05-14T19:06:42.304Z,11.40
2019-05-14T19:08:43.728Z,11.23
2019-05-14T19:10:45.149Z,11.01
2019-05-14T19:12:47.786Z,10.99
2019-05-14T19:14:49.847Z,10.91
2019-05-14T19:16:51.240Z,10.76
2019-05-14T19:18:52.673Z,10.69
2019-05-14T19:20:54.062Z,10.59
2019-05-14T19:22:55.449Z,10.54
2019-05-14T19:24:58.680Z,10.54
2019-05-14T19:27:00.256Z,10.43
2019-05-14T19:29:01.637Z,10.40
2019-05-14T19:31:03.134Z,10.43
2019-05-14T19:33:04.610Z,10.19
2019-05-14T19:35:08.423Z,10.09
2019-05-14T19:37:09.629Z,10.11
2019-05-14T19:39:11.013Z,10.07
2019-05-14T19:41:12.364Z,9.98
2019-05-14T19:43:13.785Z,10.15
2019-05-14T19:45:15.871Z,9.96
2019-05-14T19:47:18.726Z,9.74
2019-05-14T19:49:32.270Z,9.87
2019-05-14T19:51:33.656Z,9.87
2019-05-14T19:53:35.079Z,9.72
2019-05-14T19:55:38.952Z,9.69
2019-05-14T19:57:39.837Z,9.68
2019-05-14T19:59:41.271Z,9.55
2019-05-14T20:01:42.785Z,9.40
2019-05-14T20:03:44.166Z,9.47
2019-05-14T20:05:45.589Z,9.35
2019-05-14T20:07:48.993Z,9.49
2019-05-14T20:09:50.359Z,9.31
2019-05-14T20:11:51.786Z,9.15
2019-05-14T20:13:53.174Z,9.27
2019-05-14T20:15:54.552Z,9.19
2019-05-14T20:17:58.034Z,9.22
2019-05-14T20:19:59.497Z,9.12
2019-05-14T20:22:01.204Z,9.07
2019-05-14T20:24:02.682Z,9.04
2019-05-14T20:26:04.086Z,8.95
2019-05-14T20:28:05.473Z,8.89
2019-05-14T20:30:08.707Z,8.89
2019-05-14T20:32:10.226Z,8.96
2019-05-14T20:34:11.565Z,8.89
2019-05-14T20:36:12.958Z,8.86
2019-05-14T20:38:14.544Z,8.89
2019-05-14T20:40:16.566Z,8.89
2019-05-14T20:42:18.544Z,8.80
2019-05-14T20:44:20.154Z,8.70
2019-05-14T20:46:21.546Z,8.75
2019-05-14T20:48:22.929Z,8.70
2019-05-14T20:50:24.326Z,8.57
2019-05-14T20:52:25.710Z,8.63
2019-05-14T20:54:29.006Z,8.57
2019-05-14T20:56:30.423Z,8.57
2019-05-14T20:58:31.883Z,8.49
2019-05-14T21:00:33.253Z,8.68
2019-05-14T21:02:34.637Z,8.51
2019-05-14T21:04:36.049Z,8.50
2019-05-14T21:06:39.046Z,8.39
2019-05-14T21:08:40.669Z,8.46
2019-05-14T21:10:42.079Z,8.46
2019-05-14T21:12:43.525Z,8.40
2019-05-14T21:14:44.889Z,8.19
2019-05-14T21:16:48.672Z,8.24
2019-05-14T21:18:49.611Z,8.24
2019-05-14T21:20:51.016Z,8.30
2019-05-14T21:22:52.408Z,8.17
2019-05-14T21:24:53.842Z,8.27
2019-05-14T21:26:55.260Z,8.18
2019-05-14T21:28:58.234Z,8.20
2019-05-14T21:31:00.371Z,8.09
2019-05-14T21:33:01.773Z,7.97
2019-05-14T21:35:04.480Z,7.94
2019-05-14T21:37:05.905Z,7.89
2019-05-14T21:39:08.047Z,7.79
2019-05-14T21:41:09.685Z,7.79
2019-05-14T21:43:11.401Z,7.82
2019-05-14T21:45:13.281Z,7.66
2019-05-14T21:47:14.661Z,7.68
2019-05-14T21:49:16.095Z,7.64
2019-05-14T21:51:18.066Z,7.51
2019-05-14T21:53:19.648Z,7.54
2019-05-14T21:55:21.036Z,7.42
2019-05-14T21:57:22.426Z,7.41
2019-05-14T21:59:23.821Z,7.33
2019-05-14T22:01:27.748Z,7.27
2019-05-14T22:03:28.898Z,7.27
2019-05-14T22:05:30.250Z,7.24
2019-05-14T22:07:31.664Z,7.23
2019-05-14T22:09:33.395Z,6.99
2019-05-14T22:11:35.017Z,7.07
2019-05-14T22:13:38.120Z,7.05
2019-05-14T22:15:39.901Z,6.84
2019-05-14T22:17:41.305Z,6.75
2019-05-14T22:19:42.691Z,6.63
2019-05-14T22:21:44.126Z,6.54
2019-05-14T22:23:48.021Z,6.27
2019-05-14T22:25:48.784Z,6.16
2019-05-14T22:27:50.194Z,6.21
2019-05-14T22:29:51.604Z,6.28
2019-05-14T22:31:52.968Z,6.36
2019-05-14T22:33:54.382Z,6.37
2019-05-14T22:35:57.937Z,6.35
2019-05-14T22:37:59.778Z,6.40
2019-05-14T22:40:01.202Z,6.30
2019-05-14T22:42:02.691Z,6.34
2019-05-14T22:44:04.054Z,6.27
2019-05-14T22:46:05.474Z,6.28
2019-05-14T22:48:09.141Z,6.11
2019-05-14T22:50:10.594Z,6.08
2019-05-14T22:52:11.976Z,6.16
2019-05-14T22:54:13.358Z,6.25
2019-05-14T22:56:14.803Z,6.30
2019-05-14T22:58:25.209Z,6.19
2019-05-14T23:00:21.169Z,6.07
2019-05-14T23:02:22.660Z,6.09
2019-05-14T23:04:24.040Z,6.09
2019-05-14T23:06:25.505Z,6.09
2019-05-14T23:08:26.926Z,5.96
2019-05-14T23:10:28.410Z,5.95
2019-05-14T23:12:29.795Z,5.97
2019-05-14T23:14:31.218Z,5.92
2019-05-14T23:16:37.784Z,5.77
2019-05-14T23:18:37.990Z,5.71
2019-05-14T23:20:39.473Z,5.63
2019-05-14T23:22:40.835Z,5.69
2019-05-14T23:24:42.230Z,5.74
2019-05-14T23:26:43.643Z,5.64
2019-05-14T23:28:46.071Z,5.66
2019-05-14T23:30:48.362Z,5.61
2019-05-14T23:32:49.729Z,5.59
2019-05-14T23:34:51.211Z,5.58
2019-05-14T23:36:52.606Z,5.56
2019-05-14T23:38:54.988Z,5.66
2019-05-14T23:40:58.772Z,5.56
2019-05-14T23:43:00.310Z,5.46
2019-05-14T23:45:02.885Z,5.54
2019-05-14T23:47:04.308Z,5.48
2019-05-14T23:49:05.670Z,5.47
2019-05-14T23:51:08.093Z,5.32
2019-05-14T23:53:09.766Z,5.33
2019-05-14T23:55:11.430Z,5.47
2019-05-14T23:57:12.866Z,5.32
2019-05-14T23:59:14.230Z,5.47
